Time;durP1;ratioP1;P1;durP2;ratioP2;P2;SDS_P1;SDS_P2;PMS_P1;PMS_P2;Temp;Humidity;BMP_temperature;BMP_pressure;BME280_temperature;BME280_humidity;BME280_pressure;Samples;Min_cycle;Max_cycle;Signal;HPM_P1;HPM_P2
2021/11/20 00:02:18;;;;;;;19.23;6.53;;;11.60;99.90;;;;;;4892754;29;20330;-80
2021/11/20 00:04:48;;;;;;;17.57;7.53;;;11.60;99.90;;;;;;4893534;29;20244;-82
2021/11/20 00:07:18;;;;;;;17.97;7.60;;;11.50;99.90;;;;;;4894129;29;20239;-82
2021/11/20 00:09:47;;;;;;;16.33;7.00;;;11.50;99.90;;;;;;4888795;29;20768;-79
2021/11/20 00:12:19;;;;;;;17.30;7.33;;;11.50;99.90;;;;;;4889436;29;20248;-82
2021/11/20 00:14:48;;;;;;;14.73;7.90;;;11.50;99.90;;;;;;4888737;29;20247;-81
2021/11/20 00:17:16;;;;;;;18.33;7.87;;;11.50;99.90;;;;;;4900632;29;20332;-81
2021/11/20 00:19:46;;;;;;;18.37;7.60;;;11.40;99.90;;;;;;4897295;29;21061;-82
2021/11/20 00:22:20;;;;;;;19.63;7.33;;;11.50;99.90;;;;;;4892428;29;20243;-82
2021/11/20 00:24:51;;;;;;;14.53;7.57;;;11.50;99.90;;;;;;4882868;29;20239;-82
2021/11/20 00:27:22;;;;;;;15.90;7.60;;;11.50;99.90;;;;;;4889133;29;20236;-82
2021/11/20 00:30:03;;;;;;;14.73;7.60;;;11.50;99.90;;;;;;4891356;29;20247;-81
2021/11/20 00:32:40;;;;;;;18.27;7.47;;;11.50;99.90;;;;;;4901788;29;20234;-81
2021/11/20 00:35:11;;;;;;;16.60;7.43;;;11.50;99.90;;;;;;4902596;29;20277;-81
2021/11/20 00:37:42;;;;;;;16.10;8.10;;;11.40;99.90;;;;;;4897335;29;20736;-82
2021/11/20 00:40:15;;;;;;;15.87;8.23;;;11.50;99.90;;;;;;4900966;29;20298;-81
2021/11/20 00:42:43;;;;;;;18.67;8.50;;;11.40;99.90;;;;;;4881524;29;20337;-80
2021/11/20 00:45:12;;;;;;;20.87;8.63;;;11.50;99.90;;;;;;4895952;29;20250;-80
2021/11/20 00:47:41;;;;;;;17.10;8.40;;;11.50;99.90;;;;;;4891054;29;20250;-82
2021/11/20 00:50:13;;;;;;;22.67;8.73;;;11.50;99.90;;;;;;4887856;29;20291;-81
2021/11/20 00:52:45;;;;;;;18.07;8.13;;;11.50;99.90;;;;;;4893242;29;20239;-82
2021/11/20 00:55:17;;;;;;;16.40;8.43;;;11.40;99.90;;;;;;4893391;29;20247;-81
2021/11/20 00:57:45;;;;;;;16.50;8.53;;;11.50;99.90;;;;;;4884314;29;21906;-81
2021/11/20 01:00:16;;;;;;;17.30;8.50;;;11.40;99.90;;;;;;4893013;29;20260;-81
2021/11/20 01:02:45;;;;;;;17.53;9.10;;;11.40;99.90;;;;;;4884568;29;20266;-82
2021/11/20 01:05:16;;;;;;;18.10;8.60;;;11.50;99.90;;;;;;4899963;29;20330;-81
2021/11/20 01:07:47;;;;;;;17.37;8.93;;;11.40;99.90;;;;;;4897635;29;20333;-81
2021/11/20 01:10:34;;;;;;;16.84;8.18;;;11.40;99.90;;;;;;3087106;29;10002014;-81
2021/11/20 01:13:04;;;;;;;20.70;9.33;;;11.40;99.90;;;;;;3539071;29;10001784;-81
2021/11/20 01:15:35;;;;;;;15.67;9.07;;;11.40;99.90;;;;;;4892468;29;20480;-81
2021/11/20 01:18:04;;;;;;;20.87;10.20;;;11.40;99.90;;;;;;4890667;29;20758;-82
2021/11/20 01:20:38;;;;;;;25.23;10.40;;;11.40;99.90;;;;;;4879999;29;20258;-81
2021/11/20 01:23:09;;;;;;;24.00;9.57;;;11.40;99.90;;;;;;4892488;29;20896;-81
2021/11/20 01:25:57;;;;;;;20.93;10.40;;;11.40;99.90;;;;;;4882332;29;20604;-82
2021/11/20 01:28:34;;;;;;;17.37;9.57;;;11.40;99.90;;;;;;4873128;29;20246;-81
2021/11/20 01:31:12;;;;;;;22.80;10.20;;;11.40;99.90;;;;;;4898448;29;20243;-83
2021/11/20 01:33:44;;;;;;;19.67;10.17;;;11.40;99.90;;;;;;4890713;29;20247;-81
2021/11/20 01:36:15;;;;;;;20.73;9.20;;;11.40;99.90;;;;;;4893980;29;20654;-81
2021/11/20 01:38:49;;;;;;;16.80;10.33;;;11.40;99.90;;;;;;4889896;29;20686;-81
2021/11/20 01:41:24;;;;;;;19.53;10.23;;;11.40;99.90;;;;;;4875426;29;20290;-81
2021/11/20 01:44:14;;;;;;;17.20;10.20;;;11.40;99.90;;;;;;4891118;29;20249;-81
2021/11/20 01:46:47;;;;;;;19.27;10.50;;;11.30;99.90;;;;;;4875369;29;20231;-81
2021/11/20 01:49:19;;;;;;;22.37;10.63;;;11.30;99.90;;;;;;4891465;29;20250;-81
2021/11/20 01:51:52;;;;;;;21.10;10.00;;;11.30;99.90;;;;;;4868921;29;20707;-81
2021/11/20 01:54:37;;;;;;;23.53;10.53;;;11.30;99.90;;;;;;4890558;29;20241;-81
2021/11/20 01:57:35;;;;;;;18.67;9.90;;;11.30;99.90;;;;;;4890685;29;20307;-81
2021/11/20 02:00:13;;;;;;;23.73;9.90;;;11.30;99.90;;;;;;4886814;29;20310;-81
2021/11/20 02:02:57;;;;;;;20.80;9.27;;;11.30;99.90;;;;;;4883722;29;20244;-81
2021/11/20 02:05:44;;;;;;;19.67;9.10;;;11.30;99.90;;;;;;4874148;29;20242;-81
2021/11/20 02:08:26;;;;;;;22.80;9.40;;;11.30;99.90;;;;;;4890814;29;20243;-81
2021/11/20 02:11:04;;;;;;;14.63;8.63;;;11.30;99.90;;;;;;4890947;29;20244;-81
2021/11/20 02:13:34;;;;;;;21.20;8.97;;;11.30;99.90;;;;;;4874720;29;20249;-81
2021/11/20 02:16:08;;;;;;;20.93;8.83;;;11.30;99.90;;;;;;4874529;29;20258;-81
2021/11/20 02:18:40;;;;;;;20.43;9.33;;;11.30;99.90;;;;;;4894666;29;20270;-80
2021/11/20 02:21:14;;;;;;;15.00;8.80;;;11.30;99.90;;;;;;4890569;29;20240;-81
2021/11/20 02:23:46;;;;;;;17.53;8.67;;;11.30;99.90;;;;;;4888986;29;20720;-81
2021/11/20 02:26:14;;;;;;;18.00;9.30;;;11.30;99.90;;;;;;4891159;29;20668;-81
2021/11/20 02:29:05;;;;;;;19.13;8.40;;;11.40;99.90;;;;;;4884908;29;20767;-81
2021/11/20 02:31:49;;;;;;;18.27;9.20;;;11.30;99.90;;;;;;4883294;29;20243;-81
2021/11/20 02:34:20;;;;;;;22.43;9.83;;;11.40;99.90;;;;;;4891260;29;20255;-81
2021/11/20 02:36:50;;;;;;;20.93;10.27;;;11.30;99.90;;;;;;4891905;29;20266;-81
2021/11/20 02:39:21;;;;;;;20.63;9.93;;;11.30;99.90;;;;;;4891419;29;20832;-81
2021/11/20 02:41:53;;;;;;;21.60;10.20;;;11.30;99.90;;;;;;4895747;29;20247;-81
2021/11/20 02:44:25;;;;;;;22.00;10.60;;;11.30;99.90;;;;;;4889957;29;20226;-81
2021/11/20 02:47:00;;;;;;;18.93;10.57;;;11.30;99.90;;;;;;4874768;29;20250;-81
2021/11/20 02:49:30;;;;;;;21.77;11.17;;;11.30;99.90;;;;;;4886384;29;20241;-81
2021/11/20 02:52:18;;;;;;;21.40;10.40;;;11.30;99.90;;;;;;4873071;29;20253;-81
2021/11/20 02:54:49;;;;;;;23.30;11.50;;;11.30;99.90;;;;;;4899582;29;20273;-81
2021/11/20 02:57:26;;;;;;;27.57;12.23;;;11.30;99.90;;;;;;4891270;29;20235;-81
2021/11/20 02:59:55;;;;;;;20.50;12.10;;;11.30;99.90;;;;;;4889512;29;20331;-81
2021/11/20 03:02:27;;;;;;;24.97;12.07;;;11.30;99.90;;;;;;4888985;29;20246;-81
2021/11/20 03:04:56;;;;;;;22.37;13.30;;;11.20;99.90;;;;;;4890887;29;20670;-81
2021/11/20 03:07:24;;;;;;;24.73;12.73;;;11.30;99.90;;;;;;4881717;29;20509;-81
2021/11/20 03:09:59;;;;;;;24.73;14.10;;;11.30;99.90;;;;;;3175517;29;10022496;-81
2021/11/20 03:12:28;;;;;;;25.00;13.57;;;11.30;99.90;;;;;;2857614;29;10001997;-81
2021/11/20 03:14:59;;;;;;;23.43;13.60;;;11.30;99.90;;;;;;4889526;29;20463;-80
2021/11/20 03:17:37;;;;;;;26.57;13.27;;;11.30;99.90;;;;;;4890898;29;21190;-81
2021/11/20 03:20:09;;;;;;;23.33;13.50;;;11.30;99.90;;;;;;4879437;29;20267;-81
2021/11/20 03:22:46;;;;;;;25.50;13.87;;;11.30;99.90;;;;;;4885297;29;20600;-80
2021/11/20 03:25:15;;;;;;;28.53;13.43;;;11.30;99.90;;;;;;4873714;29;20231;-81
2021/11/20 03:27:45;;;;;;;24.90;14.10;;;11.20;99.90;;;;;;4884187;29;20250;-81
2021/11/20 03:30:15;;;;;;;25.10;13.20;;;11.20;99.90;;;;;;4886373;29;20263;-82
2021/11/20 03:32:46;;;;;;;28.83;13.17;;;11.20;99.90;;;;;;4884935;29;20244;-81
2021/11/20 03:35:20;;;;;;;31.60;13.43;;;11.30;99.90;;;;;;4887781;29;20252;-81
2021/11/20 03:37:52;;;;;;;21.23;12.50;;;11.30;99.90;;;;;;4872230;29;20256;-81
2021/11/20 03:40:24;;;;;;;25.17;13.93;;;11.20;99.90;;;;;;4887223;29;20779;-81
2021/11/20 03:42:53;;;;;;;24.83;13.23;;;11.20;99.90;;;;;;4886550;29;20259;-81
2021/11/20 03:45:24;;;;;;;20.53;11.97;;;11.30;99.90;;;;;;4872637;29;20231;-81
2021/11/20 03:47:56;;;;;;;20.50;11.67;;;11.30;99.90;;;;;;4885719;29;20637;-81
2021/11/20 03:50:25;;;;;;;24.53;12.40;;;11.30;99.90;;;;;;4876963;29;20238;-81
2021/11/20 03:52:54;;;;;;;24.57;12.20;;;11.30;99.90;;;;;;4873245;29;20245;-82
2021/11/20 03:55:24;;;;;;;26.60;12.80;;;11.30;99.90;;;;;;4873897;29;20239;-81
2021/11/20 03:57:53;;;;;;;28.83;13.27;;;11.30;99.90;;;;;;4891275;29;20703;-81
2021/11/20 04:00:24;;;;;;;24.40;12.83;;;11.30;99.90;;;;;;4887873;29;20694;-81
2021/11/20 04:02:54;;;;;;;29.83;12.90;;;11.30;99.90;;;;;;4873265;29;20254;-81
2021/11/20 04:05:25;;;;;;;25.17;12.67;;;11.30;99.90;;;;;;4887448;29;20242;-81
2021/11/20 04:07:53;;;;;;;23.83;12.97;;;11.30;99.90;;;;;;4872166;29;20254;-81
2021/11/20 04:10:32;;;;;;;27.83;13.03;;;11.30;99.90;;;;;;4873637;29;20245;-81
2021/11/20 04:13:00;;;;;;;19.20;12.63;;;11.30;99.90;;;;;;4875638;29;20238;-81
2021/11/20 04:15:29;;;;;;;18.60;13.17;;;11.30;99.90;;;;;;4890507;29;20317;-81
2021/11/20 04:18:00;;;;;;;24.37;13.27;;;11.20;99.90;;;;;;4893130;29;20235;-81
2021/11/20 04:20:29;;;;;;;27.57;13.73;;;11.30;99.90;;;;;;4894339;29;20295;-81
2021/11/20 04:23:00;;;;;;;22.50;13.03;;;11.20;99.90;;;;;;4873202;29;20235;-81
2021/11/20 04:25:31;;;;;;;23.70;13.77;;;11.20;99.90;;;;;;4890728;29;20323;-81
2021/11/20 04:27:59;;;;;;;19.50;12.83;;;11.20;99.90;;;;;;4892776;29;20235;-81
2021/11/20 04:30:37;;;;;;;26.77;13.93;;;11.20;99.90;;;;;;4896713;29;20260;-81
2021/11/20 04:33:07;;;;;;;27.27;13.73;;;11.20;99.90;;;;;;4877280;29;20242;-81
2021/11/20 04:35:36;;;;;;;22.93;13.50;;;11.30;99.90;;;;;;4877149;29;20239;-81
2021/11/20 04:38:07;;;;;;;23.30;13.50;;;11.30;99.90;;;;;;4899029;29;20266;-81
2021/11/20 04:40:37;;;;;;;19.87;12.97;;;11.30;99.90;;;;;;4897453;29;20676;-81
2021/11/20 04:43:05;;;;;;;20.23;14.47;;;11.20;99.90;;;;;;4893388;29;20330;-82
2021/11/20 04:45:36;;;;;;;25.13;14.37;;;11.20;99.90;;;;;;4892315;29;20238;-81
2021/11/20 04:48:08;;;;;;;22.10;13.90;;;11.30;99.90;;;;;;4894755;29;20291;-81
2021/11/20 04:50:51;;;;;;;25.47;13.63;;;11.20;99.90;;;;;;4881877;29;20826;-81
2021/11/20 04:53:20;;;;;;;20.93;13.97;;;11.20;99.90;;;;;;4892960;29;20277;-81
2021/11/20 04:55:49;;;;;;;22.37;13.80;;;11.30;99.90;;;;;;4875871;29;20602;-82
2021/11/20 04:58:18;;;;;;;23.73;13.37;;;11.20;99.90;;;;;;4880578;29;20251;-81
2021/11/20 05:00:50;;;;;;;25.73;14.73;;;11.20;99.90;;;;;;4887510;29;20699;-81
2021/11/20 05:03:25;;;;;;;25.87;14.17;;;11.20;99.90;;;;;;4878376;29;20797;-81
2021/11/20 05:05:55;;;;;;;24.67;13.90;;;11.20;99.90;;;;;;4899690;29;20238;-81
2021/11/20 05:08:24;;;;;;;26.57;13.20;;;11.30;99.90;;;;;;4888641;29;20319;-82
2021/11/20 05:11:10;;;;;;;22.90;14.70;;;11.30;99.90;;;;;;2284988;29;10022919;-82
2021/11/20 05:13:45;;;;;;;19.37;13.63;;;11.30;99.90;;;;;;3868363;29;10001171;-80
2021/11/20 05:16:14;;;;;;;20.10;13.87;;;11.30;99.90;;;;;;4875763;29;20486;-80
2021/11/20 05:18:46;;;;;;;19.80;13.80;;;11.30;99.90;;;;;;4895271;29;20572;-80
2021/11/20 05:21:29;;;;;;;22.07;14.37;;;11.20;99.90;;;;;;4875308;29;20345;-80
2021/11/20 05:23:58;;;;;;;21.67;14.10;;;11.20;99.90;;;;;;4892510;29;20233;-81
2021/11/20 05:26:26;;;;;;;19.93;13.93;;;11.20;99.90;;;;;;4874530;29;21071;-80
2021/11/20 05:29:04;;;;;;;17.77;12.43;;;11.20;99.90;;;;;;4891297;29;20235;-79
2021/11/20 05:31:38;;;;;;;21.97;14.77;;;11.20;99.90;;;;;;4876530;29;20235;-79
2021/11/20 05:34:09;;;;;;;21.97;14.33;;;11.20;99.90;;;;;;4875836;29;20235;-78
2021/11/20 05:36:38;;;;;;;18.90;13.00;;;11.20;99.90;;;;;;4876585;29;20955;-81
2021/11/20 05:39:11;;;;;;;23.10;13.50;;;11.20;99.90;;;;;;4882545;29;20859;-81
2021/11/20 05:41:42;;;;;;;23.40;13.00;;;11.20;99.90;;;;;;4898381;29;20247;-81
2021/11/20 05:44:12;;;;;;;17.33;13.80;;;11.20;99.90;;;;;;4892511;29;20254;-81
2021/11/20 05:47:03;;;;;;;23.10;13.60;;;11.20;99.90;;;;;;4875777;29;20330;-81
2021/11/20 05:49:39;;;;;;;25.30;14.23;;;11.20;99.90;;;;;;4890329;29;20241;-81
2021/11/20 05:52:12;;;;;;;21.83;14.40;;;11.20;99.90;;;;;;4890671;29;20234;-81
2021/11/20 05:54:41;;;;;;;24.77;14.20;;;11.10;99.90;;;;;;4891130;29;20238;-80
2021/11/20 05:57:15;;;;;;;21.17;14.67;;;11.20;99.90;;;;;;4887519;29;20297;-81
2021/11/20 05:59:44;;;;;;;22.27;14.60;;;11.20;99.90;;;;;;4898569;29;20707;-81
2021/11/20 06:02:17;;;;;;;21.80;15.43;;;11.20;99.90;;;;;;4891288;29;20283;-81
2021/11/20 06:04:54;;;;;;;22.67;15.07;;;11.10;99.90;;;;;;4875738;29;20238;-82
2021/11/20 06:07:23;;;;;;;18.63;15.00;;;11.10;99.90;;;;;;4895489;29;20242;-80
2021/11/20 06:09:51;;;;;;;23.13;15.47;;;11.20;99.90;;;;;;4889569;29;20241;-81
2021/11/20 06:12:25;;;;;;;22.30;15.17;;;11.20;99.90;;;;;;4890986;29;20786;-81
2021/11/20 06:14:54;;;;;;;24.50;15.80;;;11.20;99.90;;;;;;4880384;29;20254;-80
2021/11/20 06:17:24;;;;;;;23.93;15.70;;;11.20;99.90;;;;;;4892350;29;20739;-81
2021/11/20 06:19:54;;;;;;;24.87;16.10;;;11.20;99.90;;;;;;4893236;29;20255;-80
2021/11/20 06:22:24;;;;;;;23.53;16.70;;;11.20;99.90;;;;;;4895518;29;20310;-81
2021/11/20 06:24:57;;;;;;;24.53;16.00;;;11.10;99.90;;;;;;4876183;29;20243;-81
2021/11/20 06:27:26;;;;;;;21.27;15.23;;;11.10;99.90;;;;;;4874264;29;20249;-81
2021/11/20 06:30:02;;;;;;;26.47;16.80;;;11.10;99.90;;;;;;4889667;29;20305;-81
2021/11/20 06:32:31;;;;;;;23.90;16.20;;;11.20;99.90;;;;;;4889636;29;20641;-81
2021/11/20 06:35:23;;;;;;;23.13;15.83;;;11.20;99.90;;;;;;4869750;29;20736;-81
2021/11/20 06:38:04;;;;;;;22.90;15.97;;;11.10;99.90;;;;;;4900314;29;20575;-81
2021/11/20 06:40:36;;;;;;;23.03;16.07;;;11.10;99.90;;;;;;4891259;29;20897;-81
2021/11/20 06:43:07;;;;;;;27.23;16.43;;;11.20;99.90;;;;;;4891575;29;20245;-80
2021/11/20 06:45:37;;;;;;;26.63;15.43;;;11.20;99.90;;;;;;4877087;29;20239;-80
2021/11/20 06:48:06;;;;;;;24.17;15.67;;;11.20;99.90;;;;;;4887635;29;20254;-80
2021/11/20 06:50:39;;;;;;;22.37;15.63;;;11.20;99.90;;;;;;4873212;29;20246;-80
2021/11/20 06:53:37;;;;;;;24.97;15.87;;;11.20;99.90;;;;;;4890261;29;20239;-79
2021/11/20 06:56:48;;;;;;;24.83;15.20;;;11.20;99.90;;;;;;4868708;29;20366;-80
2021/11/20 07:03:04;;;;;;;25.43;16.03;;;11.20;99.90;;;;;;4844413;29;20786;-80
2021/11/20 07:05:35;;;;;;;24.23;15.57;;;11.20;99.90;;;;;;4878211;29;20729;-80
2021/11/20 07:08:05;;;;;;;22.37;15.43;;;11.20;99.90;;;;;;4874876;29;20252;-80
2021/11/20 07:10:34;;;;;;;22.97;15.50;;;11.20;99.90;;;;;;4888751;29;20250;-80
2021/11/20 07:13:15;;;;;;;21.70;15.40;;;11.20;99.90;;;;;;1988561;29;10024346;-80
2021/11/20 07:15:44;;;;;;;22.47;15.67;;;11.20;99.90;;;;;;3538342;29;10001365;-80
2021/11/20 07:18:13;;;;;;;23.53;16.30;;;11.20;99.90;;;;;;4891064;29;20487;-80
2021/11/20 07:21:00;;;;;;;24.27;16.30;;;11.20;99.90;;;;;;4887455;29;20368;-80
2021/11/20 07:23:50;;;;;;;24.33;16.50;;;11.20;99.90;;;;;;4878378;29;20247;-80
2021/11/20 07:26:18;;;;;;;22.07;16.00;;;11.20;99.90;;;;;;4872952;29;20231;-80
2021/11/20 07:28:47;;;;;;;23.47;15.23;;;11.20;99.90;;;;;;4871950;29;20323;-80
2021/11/20 07:31:58;;;;;;;21.70;15.43;;;11.20;99.90;;;;;;4889035;29;20330;-80
2021/11/20 07:34:28;;;;;;;22.17;16.07;;;11.30;99.90;;;;;;4890079;29;20310;-80
2021/11/20 07:37:00;;;;;;;24.53;15.73;;;11.20;99.90;;;;;;4877256;29;20310;-80
2021/11/20 07:39:31;;;;;;;20.43;15.37;;;11.30;99.90;;;;;;4874209;29;20235;-79
2021/11/20 07:42:01;;;;;;;22.70;14.83;;;11.30;99.90;;;;;;4898734;29;20705;-79
2021/11/20 07:44:30;;;;;;;23.33;15.17;;;11.20;99.90;;;;;;4883762;29;20716;-79
2021/11/20 07:47:00;;;;;;;24.83;14.30;;;11.20;99.90;;;;;;4882007;29;20251;-79
2021/11/20 07:49:36;;;;;;;20.47;14.17;;;11.20;99.90;;;;;;4891190;29;20705;-79
2021/11/20 07:52:06;;;;;;;22.37;14.80;;;11.20;99.90;;;;;;4895905;29;20321;-79
2021/11/20 07:54:36;;;;;;;20.23;15.37;;;11.20;99.90;;;;;;4903040;29;20233;-79
2021/11/20 07:57:33;;;;;;;19.67;13.80;;;11.20;99.90;;;;;;4884172;29;20243;-79
2021/11/20 08:00:09;;;;;;;21.13;13.47;;;11.20;99.90;;;;;;4892508;29;20250;-79
2021/11/20 08:02:58;;;;;;;21.53;13.13;;;11.20;99.90;;;;;;4874719;29;20250;-79
2021/11/20 08:05:50;;;;;;;17.07;12.80;;;11.20;99.90;;;;;;4873753;29;20237;-79
2021/11/20 08:08:39;;;;;;;18.57;12.53;;;11.20;99.90;;;;;;4889107;29;20244;-80
2021/11/20 08:11:19;;;;;;;16.13;12.50;;;11.30;99.90;;;;;;4889103;29;20242;-79
2021/11/20 08:13:47;;;;;;;20.87;12.93;;;11.30;99.90;;;;;;4888432;29;20313;-79
2021/11/20 08:16:37;;;;;;;21.83;12.67;;;11.30;99.90;;;;;;4894217;29;20774;-79
2021/11/20 08:19:24;;;;;;;17.00;11.73;;;11.30;99.90;;;;;;4895384;29;20359;-80
2021/11/20 08:22:04;;;;;;;16.10;11.23;;;11.30;99.90;;;;;;4895965;29;20241;-80
2021/11/20 08:24:36;;;;;;;18.00;12.50;;;11.30;99.90;;;;;;4902950;29;20246;-80
2021/11/20 08:27:09;;;;;;;15.57;12.23;;;11.30;99.90;;;;;;4892982;29;20475;-81
2021/11/20 08:29:53;;;;;;;15.27;10.87;;;11.30;99.90;;;;;;4872362;29;20242;-82
2021/11/20 08:32:22;;;;;;;18.90;12.60;;;11.40;99.90;;;;;;4874501;29;20649;-82
2021/11/20 08:34:59;;;;;;;15.77;11.60;;;11.40;99.90;;;;;;4877840;29;20707;-82
2021/11/20 08:37:44;;;;;;;14.50;11.37;;;11.40;99.90;;;;;;4891564;29;20240;-82
2021/11/20 08:40:28;;;;;;;14.33;10.90;;;11.40;99.90;;;;;;4898589;29;20245;-82
2021/11/20 08:43:01;;;;;;;16.03;11.43;;;11.40;99.90;;;;;;4904288;29;20238;-82
2021/11/20 08:45:33;;;;;;;15.57;10.97;;;11.40;99.90;;;;;;4896881;29;20265;-83
2021/11/20 08:48:03;;;;;;;13.23;10.37;;;11.50;99.90;;;;;;4904062;29;20241;-82
2021/11/20 08:50:36;;;;;;;14.03;10.70;;;11.50;99.90;;;;;;4895195;29;20745;-82
2021/11/20 08:53:05;;;;;;;12.33;10.57;;;11.50;99.90;;;;;;4880446;29;20269;-83
2021/11/20 08:55:34;;;;;;;15.57;10.80;;;11.50;99.90;;;;;;4893819;29;20239;-82
2021/11/20 08:58:19;;;;;;;15.27;11.33;;;11.50;99.90;;;;;;4880751;29;20250;-81
2021/11/20 09:00:51;;;;;;;14.07;10.73;;;11.50;99.90;;;;;;4889587;29;20306;-82
2021/11/20 09:03:46;;;;;;;14.13;10.60;;;11.60;99.90;;;;;;4848956;29;20253;-81
2021/11/20 09:06:22;;;;;;;12.10;10.20;;;11.60;99.90;;;;;;981849;29;10002058;-81
2021/11/20 09:08:54;;;;;;;14.03;10.77;;;11.70;99.90;;;;;;4887962;29;20832;-81
2021/11/20 09:11:26;;;;;;;12.93;10.37;;;11.70;99.90;;;;;;4891884;29;20254;-81
2021/11/20 09:14:01;;;;;;;13.73;10.83;;;11.70;99.90;;;;;;4897411;29;20810;-80
2021/11/20 09:16:36;;;;;;;13.90;10.97;;;11.70;99.90;;;;;;4880231;29;20783;-81
2021/11/20 09:19:05;;;;;;;13.73;10.20;;;11.70;99.90;;;;;;4900127;29;20297;-81
2021/11/20 09:21:40;;;;;;;13.43;11.10;;;11.70;99.90;;;;;;4894925;29;20364;-81
2021/11/20 09:24:31;;;;;;;11.57;10.33;;;11.80;99.90;;;;;;4875475;29;20290;-81
2021/11/20 09:27:25;;;;;;;15.80;12.00;;;11.70;99.90;;;;;;4882777;29;20362;-81
2021/11/20 09:29:55;;;;;;;14.50;11.53;;;11.80;99.90;;;;;;4880333;29;21240;-81
2021/11/20 09:32:25;;;;;;;14.63;10.97;;;11.70;99.90;;;;;;4881463;29;20246;-81
2021/11/20 09:35:01;;;;;;;15.07;10.63;;;11.70;99.90;;;;;;4885119;29;20264;-81
2021/11/20 09:38:08;;;;;;;16.23;10.77;;;11.80;99.90;;;;;;4866026;29;21027;-81
2021/11/20 09:40:41;;;;;;;14.97;11.03;;;11.70;99.90;;;;;;4866885;29;20242;-81
2021/11/20 09:43:20;;;;;;;12.60;11.30;;;11.80;99.90;;;;;;4885714;29;21663;-81
2021/11/20 09:45:57;;;;;;;13.63;11.20;;;11.70;99.90;;;;;;4886141;29;20321;-81
2021/11/20 09:48:33;;;;;;;15.50;12.17;;;11.70;99.90;;;;;;4868519;29;20329;-81
2021/11/20 09:51:16;;;;;;;14.47;11.20;;;11.70;99.90;;;;;;4861187;29;20254;-82
2021/11/20 09:53:44;;;;;;;12.90;11.47;;;11.70;99.90;;;;;;4884716;29;21282;-81
2021/11/20 09:56:21;;;;;;;12.67;11.20;;;11.70;99.90;;;;;;4877707;29;20271;-81
2021/11/20 09:58:51;;;;;;;13.00;11.00;;;11.70;99.90;;;;;;4878115;29;20337;-81
2021/11/20 10:01:30;;;;;;;13.60;10.93;;;11.70;99.90;;;;;;4875165;29;20247;-81
2021/11/20 10:04:17;;;;;;;15.70;11.93;;;11.80;99.90;;;;;;4867219;29;20316;-81
2021/11/20 10:06:49;;;;;;;15.13;11.60;;;11.80;99.90;;;;;;4877808;29;20303;-81
2021/11/20 10:09:28;;;;;;;12.80;11.40;;;11.70;99.90;;;;;;4877025;29;20333;-81
2021/11/20 10:12:02;;;;;;;14.30;11.33;;;11.70;99.90;;;;;;4874270;29;20246;-81
2021/11/20 10:14:37;;;;;;;17.00;11.80;;;11.70;99.90;;;;;;4877418;29;20251;-81
2021/11/20 10:17:22;;;;;;;13.73;12.03;;;11.70;99.90;;;;;;4877728;29;20808;-82
2021/11/20 10:19:54;;;;;;;13.60;11.87;;;11.70;99.90;;;;;;4886983;29;20274;-81
2021/11/20 10:22:47;;;;;;;19.77;12.13;;;11.70;99.90;;;;;;4877697;29;20731;-81
2021/11/20 10:25:23;;;;;;;13.27;11.03;;;11.70;99.90;;;;;;4878324;29;20457;-81
2021/11/20 10:28:02;;;;;;;15.83;12.10;;;11.70;99.90;;;;;;4884106;29;20307;-81
2021/11/20 10:30:37;;;;;;;13.50;11.00;;;11.70;99.90;;;;;;4877938;29;20346;-82
2021/11/20 10:33:17;;;;;;;12.13;10.90;;;11.80;99.90;;;;;;4874970;29;20250;-81
2021/11/20 10:35:49;;;;;;;13.83;10.13;;;11.80;99.90;;;;;;4878840;29;20351;-83
2021/11/20 10:38:25;;;;;;;14.00;10.03;;;11.70;99.90;;;;;;4883255;29;20231;-82
2021/11/20 10:41:01;;;;;;;10.50;9.47;;;11.70;99.90;;;;;;4879547;29;20262;-81
2021/11/20 10:43:35;;;;;;;11.07;9.90;;;11.70;99.90;;;;;;4886693;29;20239;-81
2021/11/20 10:46:25;;;;;;;11.73;9.77;;;11.70;99.90;;;;;;4877316;29;20259;-81
2021/11/20 10:49:18;;;;;;;11.33;10.07;;;11.70;99.90;;;;;;4881334;29;20596;-81
2021/11/20 10:51:54;;;;;;;13.30;10.50;;;11.70;99.90;;;;;;4875410;29;20247;-81
2021/11/20 10:54:53;;;;;;;14.17;11.13;;;11.70;99.90;;;;;;4876915;29;20254;-82
2021/11/20 10:57:40;;;;;;;13.90;10.97;;;11.70;99.90;;;;;;4877260;29;20878;-82
2021/11/20 11:00:27;;;;;;;16.40;10.79;;;11.70;99.90;;;;;;3389416;29;10021624;-82
2021/11/20 11:03:38;;;;;;;14.30;12.27;;;11.60;99.90;;;;;;2689818;29;10002018;-82
2021/11/20 11:06:43;;;;;;;14.47;12.23;;;11.70;99.90;;;;;;4877310;29;20945;-82
2021/11/20 11:09:26;;;;;;;14.67;12.60;;;11.70;99.90;;;;;;4878042;29;20723;-82
2021/11/20 11:11:58;;;;;;;15.50;13.07;;;11.70;99.90;;;;;;4876304;29;20386;-82
2021/11/20 11:14:51;;;;;;;15.80;13.13;;;11.60;99.90;;;;;;4877883;29;20250;-82
2021/11/20 11:17:31;;;;;;;14.97;13.30;;;11.70;99.90;;;;;;4878321;29;20886;-82
2021/11/20 11:20:04;;;;;;;16.13;13.87;;;11.60;99.90;;;;;;4877889;29;20242;-82
2021/11/20 11:22:38;;;;;;;14.93;13.40;;;11.60;99.90;;;;;;4880020;29;20334;-81
2021/11/20 11:25:17;;;;;;;15.77;13.90;;;11.60;99.90;;;;;;4877395;29;20261;-82
2021/11/20 11:28:17;;;;;;;20.40;15.57;;;11.60;99.90;;;;;;4878201;29;20888;-82
2021/11/20 11:30:50;;;;;;;16.73;14.37;;;11.60;99.90;;;;;;4875595;29;20249;-82
2021/11/20 11:33:20;;;;;;;16.90;15.00;;;11.60;99.90;;;;;;4877383;29;20274;-81
2021/11/20 11:35:55;;;;;;;17.30;15.43;;;11.60;99.90;;;;;;4882010;29;20276;-82
2021/11/20 11:38:57;;;;;;;17.30;13.83;;;11.60;99.90;;;;;;4881870;29;20339;-82
2021/11/20 11:41:33;;;;;;;18.00;16.23;;;11.60;99.90;;;;;;4878163;29;20394;-81
2021/11/20 11:44:10;;;;;;;19.23;15.57;;;11.60;99.90;;;;;;4880966;29;20249;-81
2021/11/20 11:46:54;;;;;;;18.23;15.70;;;11.60;99.90;;;;;;4882540;29;20251;-82
2021/11/20 11:50:00;;;;;;;19.43;16.63;;;11.60;99.90;;;;;;4873799;29;20750;-84
2021/11/20 11:52:44;;;;;;;17.17;14.60;;;11.70;99.90;;;;;;4876161;29;20244;-82
2021/11/20 11:55:52;;;;;;;20.03;17.37;;;11.70;99.90;;;;;;4882267;29;20242;-83
2021/11/20 11:58:49;;;;;;;20.43;16.23;;;11.80;99.90;;;;;;4880277;29;20277;-80
2021/11/20 12:01:20;;;;;;;19.43;17.43;;;11.80;99.90;;;;;;4877337;29;20807;-80
2021/11/20 12:04:03;;;;;;;19.53;17.53;;;11.90;99.90;;;;;;4879058;29;20249;-80
2021/11/20 12:06:41;;;;;;;20.50;18.27;;;11.80;99.90;;;;;;4880974;29;20257;-82
2021/11/20 12:09:27;;;;;;;20.17;18.07;;;11.80;99.90;;;;;;4889321;29;20345;-83
2021/11/20 12:12:08;;;;;;;21.17;17.87;;;11.80;99.90;;;;;;4879789;29;20381;-82
2021/11/20 12:14:40;;;;;;;21.00;18.53;;;11.80;99.90;;;;;;4881695;29;20341;-82
2021/11/20 12:17:30;;;;;;;21.60;19.27;;;11.80;99.90;;;;;;4881963;29;20954;-81
2021/11/20 12:20:23;;;;;;;20.67;18.57;;;11.80;99.90;;;;;;4882116;29;20330;-82
2021/11/20 12:23:00;;;;;;;19.33;17.33;;;11.80;99.90;;;;;;4868260;29;20247;-82
2021/11/20 12:25:44;;;;;;;19.97;17.87;;;11.80;99.90;;;;;;4881752;29;20295;-81
2021/11/20 12:28:25;;;;;;;20.20;17.33;;;11.80;99.90;;;;;;4880985;29;20274;-80
2021/11/20 12:31:22;;;;;;;19.97;17.97;;;11.70;99.90;;;;;;4883281;29;20271;-79
2021/11/20 12:34:01;;;;;;;20.13;18.23;;;11.80;99.90;;;;;;4881101;29;21039;-79
2021/11/20 12:37:03;;;;;;;20.70;18.50;;;11.70;99.90;;;;;;4881293;29;20632;-80
2021/11/20 12:40:05;;;;;;;20.00;18.03;;;11.70;99.90;;;;;;4881157;29;20270;-79
2021/11/20 12:42:47;;;;;;;21.27;18.70;;;11.70;99.90;;;;;;4866460;29;20246;-79
2021/11/20 12:45:40;;;;;;;20.23;18.03;;;11.70;99.90;;;;;;4884623;29;20740;-80
2021/11/20 12:48:38;;;;;;;19.90;17.43;;;11.70;99.90;;;;;;4881170;29;20328;-80
2021/11/20 12:51:22;;;;;;;19.53;17.53;;;11.70;99.90;;;;;;4874264;29;20249;-80
2021/11/20 12:53:55;;;;;;;21.67;17.23;;;11.70;99.90;;;;;;4884061;29;20426;-80
2021/11/20 12:56:35;;;;;;;19.00;17.00;;;11.60;99.90;;;;;;4882240;29;20941;-80
2021/11/20 12:59:17;;;;;;;19.93;17.87;;;11.60;99.90;;;;;;4876334;29;20238;-80
2021/11/20 13:02:00;;;;;;;18.48;16.20;;;11.50;99.90;;;;;;1673340;29;10002902;-79
2021/11/20 13:04:43;;;;;;;20.87;18.40;;;11.50;99.90;;;;;;3870973;29;10001367;-80
2021/11/20 13:07:15;;;;;;;21.70;18.87;;;11.40;99.90;;;;;;4876195;29;20560;-80
2021/11/20 13:09:52;;;;;;;20.40;18.30;;;11.30;99.90;;;;;;4875224;29;20250;-80
2021/11/20 13:12:26;;;;;;;21.67;17.87;;;11.30;99.90;;;;;;4873910;29;20243;-79
2021/11/20 13:15:28;;;;;;;21.00;18.80;;;11.30;99.90;;;;;;4876560;29;20250;-80
2021/11/20 13:18:00;;;;;;;23.57;18.83;;;11.30;99.90;;;;;;4871434;29;20274;-80
2021/11/20 13:20:34;;;;;;;21.47;19.23;;;11.40;99.90;;;;;;4874538;29;20235;-80